Time;durP1;ratioP1;P1;durP2;ratioP2;P2;SDS_P1;SDS_P2;PMS_P1;PMS_P2;Temp;Humidity;BMP_temperature;BMP_pressure;BME280_temperature;BME280_humidity;BME280_pressure;Samples;Min_cycle;Max_cycle;Signal;HPM_P1;HPM_P2
2023/01/16 00:01:52;;;;;;;0.13;0.10;;;;;;;;;;10298391;28;20284;-80
2023/01/16 00:06:54;;;;;;;0.17;0.17;;;;;;;;;;10319115;28;20215;-87
2023/01/16 00:11:55;;;;;;;1.10;0.32;;;;;;;;;;10303294;28;20216;-75
2023/01/16 00:16:56;;;;;;;0.20;0.20;;;;;;;;;;10317515;28;20741;-85
2023/01/16 00:21:57;;;;;;;0.20;0.20;;;;;;;;;;10317247;28;20279;-82
2023/01/16 00:26:58;;;;;;;0.32;0.15;;;;;;;;;;10316760;28;20206;-79
2023/01/16 00:32:00;;;;;;;0.10;0.10;;;;;;;;;;10298289;28;20213;-88
2023/01/16 00:37:01;;;;;;;0.43;0.32;;;;;;;;;;10303620;28;20217;-81
2023/01/16 00:42:02;;;;;;;2.80;0.20;;;;;;;;;;10328694;28;20245;-83
2023/01/16 00:47:04;;;;;;;1.25;0.30;;;;;;;;;;10316142;28;20219;-88
2023/01/16 00:52:06;;;;;;;3.60;0.60;;;;;;;;;;10328518;28;20213;-86
2023/01/16 00:57:07;;;;;;;1.42;0.50;;;;;;;;;;10328015;28;20213;-79
2023/01/16 01:02:08;;;;;;;0.20;0.20;;;;;;;;;;10321411;28;20745;-82
2023/01/16 01:07:09;;;;;;;1.20;0.20;;;;;;;;;;10319614;28;20233;-88
2023/01/16 01:12:11;;;;;;;2.92;0.25;;;;;;;;;;10321909;28;20695;-86
2023/01/16 01:17:12;;;;;;;0.20;0.13;;;;;;;;;;10318645;28;20464;-82
2023/01/16 01:22:15;;;;;;;0.65;0.20;;;;;;;;;;10325051;28;20220;-86
2023/01/16 01:27:17;;;;;;;1.27;0.20;;;;;;;;;;10314228;28;20225;-80
2023/01/16 01:32:18;;;;;;;0.10;0.10;;;;;;;;;;10323721;28;20224;-84
2023/01/16 01:37:19;;;;;;;3.30;0.20;;;;;;;;;;10310170;28;20208;-84
2023/01/16 01:47:43;;;;;;;0.25;0.10;;;;;;;;;;10321676;28;20205;-83
2023/01/16 01:52:45;;;;;;;2.47;0.20;;;;;;;;;;10321937;28;20379;-88
2023/01/16 01:57:49;;;;;;;0.10;0.10;;;;;;;;;;10320745;28;20268;-78
2023/01/16 02:03:01;;;;;;;0.52;0.20;;;;;;;;;;10323071;28;20228;-80
2023/01/16 02:08:03;;;;;;;0.20;0.20;;;;;;;;;;10326771;28;20205;-84
2023/01/16 02:13:04;;;;;;;0.60;0.20;;;;;;;;;;10305360;28;20854;-91
2023/01/16 02:23:48;;;;;;;1.38;0.30;;;;;;;;;;10316483;28;20239;-86
2023/01/16 02:28:52;;;;;;;0.30;0.30;;;;;;;;;;10315409;28;20219;-82
2023/01/16 02:34:08;;;;;;;1.50;0.30;;;;;;;;;;10319106;28;20217;-78
2023/01/16 02:39:16;;;;;;;3.35;0.20;;;;;;;;;;10319143;28;20291;-84
2023/01/16 02:44:24;;;;;;;0.10;0.10;;;;;;;;;;10315405;28;20736;-85
2023/01/16 02:49:40;;;;;;;0.10;0.10;;;;;;;;;;10315731;28;20220;-88
2023/01/16 02:54:45;;;;;;;0.40;0.20;;;;;;;;;;10315831;28;20249;-80
2023/01/16 02:59:46;;;;;;;0.85;0.25;;;;;;;;;;10314037;28;20240;-86
2023/01/16 03:04:48;;;;;;;1.08;0.40;;;;;;;;;;10309757;28;20205;-83
2023/01/16 03:09:58;;;;;;;2.50;0.50;;;;;;;;;;10312811;28;20221;-80
2023/01/16 03:15:03;;;;;;;0.68;0.20;;;;;;;;;;10316869;28;20328;-80
2023/01/16 03:20:10;;;;;;;2.58;0.30;;;;;;;;;;10313946;28;20221;-77
2023/01/16 03:25:19;;;;;;;0.52;0.30;;;;;;;;;;10335580;28;20315;-88
2023/01/16 03:30:20;;;;;;;0.80;0.28;;;;;;;;;;10335658;28;20468;-90
2023/01/16 03:35:34;;;;;;;0.20;0.20;;;;;;;;;;10314703;28;20677;-84
2023/01/16 03:40:37;;;;;;;2.05;0.30;;;;;;;;;;10317769;28;20294;-85
2023/01/16 03:45:44;;;;;;;0.20;0.20;;;;;;;;;;10317081;28;20213;-83
2023/01/16 03:50:51;;;;;;;3.03;0.25;;;;;;;;;;10311374;28;20248;-79
2023/01/16 03:56:06;;;;;;;4.00;0.30;;;;;;;;;;10323706;28;20319;-82
2023/01/16 04:01:17;;;;;;;1.23;0.57;;;;;;;;;;10314061;28;20236;-84
2023/01/16 04:06:25;;;;;;;1.63;0.50;;;;;;;;;;10312825;28;20224;-85
2023/01/16 04:11:26;;;;;;;2.58;0.40;;;;;;;;;;10318379;28;20212;-88
2023/01/16 04:16:29;;;;;;;0.40;0.40;;;;;;;;;;10318886;28;20220;-87
2023/01/16 04:21:31;;;;;;;0.45;0.30;;;;;;;;;;10317827;28;20320;-90
2023/01/16 04:26:32;;;;;;;0.30;0.30;;;;;;;;;;10316925;28;20929;-86
2023/01/16 04:31:33;;;;;;;0.30;0.30;;;;;;;;;;10318595;28;20220;-81
2023/01/16 04:36:34;;;;;;;0.30;0.30;;;;;;;;;;10315471;28;20235;-82
2023/01/16 04:41:35;;;;;;;2.28;0.32;;;;;;;;;;10320545;28;20298;-81
2023/01/16 04:46:38;;;;;;;1.40;0.32;;;;;;;;;;10321421;28;20205;-84
2023/01/16 04:51:39;;;;;;;0.28;0.28;;;;;;;;;;10319256;28;20204;-82
2023/01/16 04:56:41;;;;;;;0.10;0.10;;;;;;;;;;10320814;28;20251;-86
2023/01/16 05:01:42;;;;;;;0.20;0.20;;;;;;;;;;10300743;28;20217;-84
2023/01/16 05:06:43;;;;;;;0.63;0.30;;;;;;;;;;10315870;28;20673;-88
2023/01/16 05:11:44;;;;;;;0.20;0.20;;;;;;;;;;10302736;28;20259;-87
2023/01/16 05:16:45;;;;;;;0.90;0.20;;;;;;;;;;10318794;28;20217;-79
2023/01/16 05:21:46;;;;;;;0.30;0.30;;;;;;;;;;10317764;28;20233;-80
2023/01/16 05:26:47;;;;;;;0.30;0.30;;;;;;;;;;10323571;28;20213;-87
2023/01/16 05:31:48;;;;;;;0.40;0.30;;;;;;;;;;10325452;28;20249;-86
2023/01/16 05:36:50;;;;;;;0.28;0.28;;;;;;;;;;10316027;28;20224;-81
2023/01/16 05:41:51;;;;;;;1.45;0.63;;;;;;;;;;10316331;28;20358;-84
2023/01/16 05:46:52;;;;;;;2.72;0.60;;;;;;;;;;10321265;28;20772;-84
2023/01/16 05:51:53;;;;;;;0.65;0.30;;;;;;;;;;10319041;28;20257;-79
2023/01/16 05:56:54;;;;;;;0.20;0.20;;;;;;;;;;10312685;28;20374;-84
2023/01/16 06:01:56;;;;;;;1.38;0.20;;;;;;;;;;10318742;28;20251;-83
2023/01/16 06:06:57;;;;;;;0.95;0.30;;;;;;;;;;10317186;28;20225;-89
2023/01/16 06:11:58;;;;;;;0.55;0.30;;;;;;;;;;10299125;28;20308;-85
2023/01/16 06:16:59;;;;;;;0.20;0.20;;;;;;;;;;10312686;28;20224;-87
2023/01/16 06:22:00;;;;;;;0.20;0.20;;;;;;;;;;10318505;28;20748;-87
2023/01/16 06:27:01;;;;;;;0.20;0.20;;;;;;;;;;10321642;28;20216;-80
2023/01/16 06:32:03;;;;;;;0.10;0.10;;;;;;;;;;10306835;28;20225;-84
2023/01/16 06:37:04;;;;;;;0.57;0.50;;;;;;;;;;10311149;28;20220;-77
2023/01/16 06:42:05;;;;;;;1.42;0.68;;;;;;;;;;10311504;28;20217;-80
2023/01/16 06:47:08;;;;;;;0.35;0.35;;;;;;;;;;10300351;28;20217;-80
2023/01/16 06:52:09;;;;;;;0.82;0.40;;;;;;;;;;10317133;28;20237;-88
2023/01/16 06:57:10;;;;;;;0.40;0.40;;;;;;;;;;10319445;28;20776;-89
2023/01/16 07:02:11;;;;;;;0.38;0.28;;;;;;;;;;10292809;28;20217;-85
2023/01/16 07:07:12;;;;;;;1.65;0.40;;;;;;;;;;10314654;28;20221;-87
2023/01/16 07:12:13;;;;;;;0.80;0.80;;;;;;;;;;10303414;28;20589;-87
2023/01/16 07:22:34;;;;;;;1.10;0.45;;;;;;;;;;10316121;28;20322;-89
2023/01/16 07:27:36;;;;;;;0.73;0.73;;;;;;;;;;10316317;28;20213;-84
2023/01/16 07:32:37;;;;;;;1.30;0.32;;;;;;;;;;10312090;28;20231;-83
2023/01/16 07:37:39;;;;;;;4.65;0.95;;;;;;;;;;10317922;28;20235;-83
2023/01/16 07:42:40;;;;;;;0.43;0.43;;;;;;;;;;10295660;28;20260;-81
2023/01/16 07:47:41;;;;;;;1.95;0.50;;;;;;;;;;10315591;28;20875;-80
2023/01/16 07:52:45;;;;;;;2.28;0.73;;;;;;;;;;10301578;28;20228;-88
2023/01/16 07:57:46;;;;;;;1.05;0.40;;;;;;;;;;10306882;28;20646;-84
2023/01/16 08:02:47;;;;;;;5.60;0.50;;;;;;;;;;10298157;28;20251;-80
2023/01/16 08:07:49;;;;;;;0.40;0.40;;;;;;;;;;10291026;28;20859;-76
2023/01/16 08:12:50;;;;;;;1.17;0.60;;;;;;;;;;10279847;28;20589;-78
2023/01/16 08:17:51;;;;;;;0.38;0.38;;;;;;;;;;10288655;28;20220;-78
2023/01/16 08:22:52;;;;;;;0.43;0.43;;;;;;;;;;10290655;28;20719;-75
2023/01/16 08:27:53;;;;;;;0.40;0.40;;;;;;;;;;10301914;28;20209;-81
2023/01/16 08:32:58;;;;;;;1.10;0.40;;;;;;;;;;10301199;28;20220;-81
2023/01/16 08:37:59;;;;;;;1.95;0.57;;;;;;;;;;10300242;28;20273;-82
2023/01/16 08:53:43;;;;;;;1.30;0.40;;;;;;;;;;10302317;28;20229;-75
2023/01/16 08:58:44;;;;;;;1.88;0.70;;;;;;;;;;10306636;28;20213;-87
2023/01/16 09:03:46;;;;;;;0.90;0.45;;;;;;;;;;10288141;28;20262;-84
2023/01/16 09:08:47;;;;;;;4.07;0.50;;;;;;;;;;10309127;28;20245;-79
2023/01/16 09:13:48;;;;;;;0.68;0.28;;;;;;;;;;10309451;28;20217;-82
2023/01/16 09:18:50;;;;;;;0.40;0.40;;;;;;;;;;10309284;28;20277;-83
2023/01/16 09:23:51;;;;;;;0.85;0.70;;;;;;;;;;10312246;28;20245;-82
2023/01/16 09:28:52;;;;;;;0.82;0.20;;;;;;;;;;10293104;28;20225;-80
2023/01/16 09:33:54;;;;;;;2.33;0.63;;;;;;;;;;10306617;28;20751;-89
2023/01/16 09:38:55;;;;;;;1.00;0.40;;;;;;;;;;10309195;28;20685;-86
2023/01/16 09:43:56;;;;;;;1.13;0.20;;;;;;;;;;10309455;28;20237;-83
2023/01/16 09:49:06;;;;;;;0.32;0.32;;;;;;;;;;10315848;28;20769;-86
2023/01/16 09:59:46;;;;;;;1.55;0.30;;;;;;;;;;10305961;28;20833;-84
2023/01/16 10:04:47;;;;;;;4.65;0.30;;;;;;;;;;10312105;28;20228;-89
2023/01/16 10:10:07;;;;;;;0.43;0.40;;;;;;;;;;10305884;28;20303;-84
2023/01/16 10:15:14;;;;;;;0.80;0.38;;;;;;;;;;10306432;28;20237;-84
2023/01/16 10:20:31;;;;;;;0.95;0.50;;;;;;;;;;10311191;28;20296;-84
2023/01/16 10:25:48;;;;;;;1.55;0.30;;;;;;;;;;10304124;28;20227;-82
2023/01/16 10:30:54;;;;;;;0.30;0.30;;;;;;;;;;10303512;28;20251;-82
2023/01/16 10:35:56;;;;;;;0.47;0.32;;;;;;;;;;10289262;28;20244;-83
2023/01/16 10:40:58;;;;;;;0.20;0.20;;;;;;;;;;10305055;28;20286;-81
2023/01/16 10:51:24;;;;;;;1.30;0.40;;;;;;;;;;10301916;28;20276;-84
2023/01/16 10:56:25;;;;;;;0.30;0.30;;;;;;;;;;10299931;28;20221;-82
2023/01/16 11:01:30;;;;;;;0.30;0.30;;;;;;;;;;10296737;28;20240;-84
2023/01/16 11:06:31;;;;;;;0.40;0.40;;;;;;;;;;10297997;28;20727;-82
2023/01/16 11:22:24;;;;;;;0.65;0.40;;;;;;;;;;10286527;28;20235;-86
2023/01/16 11:27:26;;;;;;;0.30;0.30;;;;;;;;;;10280838;28;20267;-79
2023/01/16 11:32:29;;;;;;;1.85;0.35;;;;;;;;;;10291431;28;20919;-85
2023/01/16 11:37:31;;;;;;;0.90;0.30;;;;;;;;;;10279725;28;20285;-84
2023/01/16 11:47:54;;;;;;;0.22;0.10;;;;;;;;;;10296722;28;20689;-78
2023/01/16 11:52:55;;;;;;;0.55;0.40;;;;;;;;;;10291189;28;20218;-75
2023/01/16 11:58:01;;;;;;;1.95;0.30;;;;;;;;;;10312032;28;20206;-85
2023/01/16 12:03:30;;;;;;;0.85;0.68;;;;;;;;;;10308614;28;20488;-87
2023/01/16 12:08:40;;;;;;;1.75;0.50;;;;;;;;;;10311291;28;20221;-88
2023/01/16 12:19:03;;;;;;;3.40;0.43;;;;;;;;;;10313525;28;20220;-85
2023/01/16 12:24:13;;;;;;;0.20;0.20;;;;;;;;;;10318858;28;20449;-89
2023/01/16 12:29:29;;;;;;;2.10;0.43;;;;;;;;;;10309683;28;20243;-77
2023/01/16 12:34:49;;;;;;;1.10;0.20;;;;;;;;;;10321510;28;20220;-87
2023/01/16 12:40:09;;;;;;;0.43;0.28;;;;;;;;;;10316177;28;20212;-92
2023/01/16 12:45:13;;;;;;;0.57;0.30;;;;;;;;;;10321672;28;20217;-84
2023/01/16 12:50:14;;;;;;;0.50;0.40;;;;;;;;;;10307422;28;20201;-86
2023/01/16 12:55:27;;;;;;;1.10;0.30;;;;;;;;;;10323618;28;20216;-89
2023/01/16 13:00:31;;;;;;;4.35;0.40;;;;;;;;;;10319052;28;20221;-88
2023/01/16 13:05:34;;;;;;;0.30;0.30;;;;;;;;;;10325724;28;20213;-89
2023/01/16 13:16:02;;;;;;;1.92;0.30;;;;;;;;;;10320781;28;20216;-88
2023/01/16 13:21:05;;;;;;;0.35;0.32;;;;;;;;;;10305430;28;20241;-83
2023/01/16 13:26:08;;;;;;;0.35;0.35;;;;;;;;;;10303393;28;20265;-84
2023/01/16 13:31:32;;;;;;;1.75;0.40;;;;;;;;;;10297478;28;20212;-85
2023/01/16 13:36:36;;;;;;;0.30;0.30;;;;;;;;;;10300446;28;20272;-79
2023/01/16 13:41:41;;;;;;;0.40;0.40;;;;;;;;;;10305201;28;20221;-84
2023/01/16 13:46:44;;;;;;;0.43;0.30;;;;;;;;;;10298715;28;20784;-80
2023/01/16 13:51:45;;;;;;;0.80;0.20;;;;;;;;;;10306277;28;20225;-82
2023/01/16 13:56:56;;;;;;;0.30;0.20;;;;;;;;;;10312971;28;20244;-83
2023/01/16 14:01:57;;;;;;;1.48;0.30;;;;;;;;;;10316520;28;20243;-82
2023/01/16 14:13:00;;;;;;;1.48;0.30;;;;;;;;;;10312253;28;20319;-82
2023/01/16 14:18:03;;;;;;;1.55;0.82;;;;;;;;;;10318470;28;20204;-83
2023/01/16 14:28:26;;;;;;;0.68;0.68;;;;;;;;;;10313497;28;20221;-82
2023/01/16 14:33:27;;;;;;;0.43;0.20;;;;;;;;;;10291552;28;20243;-85
2023/01/16 14:38:33;;;;;;;1.40;0.30;;;;;;;;;;10308691;28;20214;-76
2023/01/16 14:59:57;;;;;;;0.30;0.30;;;;;;;;;;10288996;28;20272;-78
2023/01/16 15:05:06;;;;;;;0.63;0.20;;;;;;;;;;10289924;28;20264;-89
2023/01/16 15:10:12;;;;;;;0.70;0.50;;;;;;;;;;10275230;28;20343;-87
2023/01/16 15:15:21;;;;;;;0.70;0.22;;;;;;;;;;10271729;28;20212;-87
2023/01/16 15:25:45;;;;;;;0.68;0.68;;;;;;;;;;10289932;28;20708;-89
2023/01/16 15:30:51;;;;;;;0.63;0.50;;;;;;;;;;10290776;28;20295;-86
2023/01/16 15:35:56;;;;;;;0.45;0.40;;;;;;;;;;10292429;28;20228;-82
2023/01/16 15:40:57;;;;;;;4.30;0.38;;;;;;;;;;10286752;28;20221;-84
2023/01/16 15:46:33;;;;;;;0.47;0.38;;;;;;;;;;10299139;28;20216;-80
2023/01/16 15:51:34;;;;;;;0.52;0.40;;;;;;;;;;10274886;28;20701;-82
2023/01/16 15:56:39;;;;;;;0.75;0.35;;;;;;;;;;10308739;28;20301;-84
2023/01/16 16:01:40;;;;;;;1.50;0.50;;;;;;;;;;10297185;28;20276;-83
2023/01/16 16:06:42;;;;;;;1.08;0.60;;;;;;;;;;10314690;28;20237;-85
2023/01/16 16:11:52;;;;;;;1.08;0.40;;;;;;;;;;10311486;28;20224;-81
2023/01/16 16:27:42;;;;;;;0.30;0.30;;;;;;;;;;10302296;28;20218;-86
2023/01/16 16:32:43;;;;;;;0.30;0.30;;;;;;;;;;10311138;28;20760;-84
2023/01/16 16:37:45;;;;;;;0.47;0.30;;;;;;;;;;10311113;28;20201;-85
2023/01/16 16:42:46;;;;;;;0.20;0.20;;;;;;;;;;10297952;28;20312;-86
2023/01/16 16:47:48;;;;;;;0.47;0.47;;;;;;;;;;10300886;28;20229;-80
2023/01/16 16:52:49;;;;;;;0.30;0.30;;;;;;;;;;10279768;28;20244;-75
2023/01/16 16:57:52;;;;;;;3.47;0.50;;;;;;;;;;10275605;28;20356;-75
2023/01/16 17:02:57;;;;;;;0.30;0.30;;;;;;;;;;10301486;28;20214;-86
2023/01/16 17:07:58;;;;;;;1.17;0.40;;;;;;;;;;10284851;28;20581;-84
2023/01/16 17:12:59;;;;;;;0.25;0.25;;;;;;;;;;10294842;28;20324;-83
2023/01/16 17:18:00;;;;;;;0.30;0.30;;;;;;;;;;10313594;28;20276;-86
2023/01/16 17:23:03;;;;;;;15.45;0.60;;;;;;;;;;10320789;28;20247;-82
2023/01/16 17:28:04;;;;;;;0.40;0.40;;;;;;;;;;10313664;28;20248;-83
2023/01/16 17:33:14;;;;;;;2.40;0.40;;;;;;;;;;10326377;28;20279;-87
2023/01/16 17:38:19;;;;;;;0.88;0.40;;;;;;;;;;10307232;28;20791;-81
2023/01/16 17:48:41;;;;;;;0.30;0.30;;;;;;;;;;10313240;28;20224;-86
2023/01/16 17:53:44;;;;;;;0.75;0.32;;;;;;;;;;10319750;28;20227;-86
2023/01/16 18:03:50;;;;;;;1.13;0.30;;;;;;;;;;10296835;28;20212;-78
2023/01/16 18:08:52;;;;;;;0.40;0.40;;;;;;;;;;10304636;28;20344;-82
2023/01/16 18:19:12;;;;;;;0.47;0.47;;;;;;;;;;10288918;28;20960;-84
2023/01/16 18:24:14;;;;;;;0.28;0.28;;;;;;;;;;10307983;28;20233;-77
2023/01/16 18:29:15;;;;;;;0.77;0.57;;;;;;;;;;10317140;28;20224;-80
2023/01/16 18:34:16;;;;;;;1.48;0.40;;;;;;;;;;10298365;28;20736;-86
2023/01/16 19:06:03;;;;;;;0.52;0.45;;;;;;;;;;10283694;28;20706;-79
2023/01/16 19:11:05;;;;;;;2.88;0.45;;;;;;;;;;10292746;28;20225;-85
2023/01/16 19:21:27;;;;;;;0.63;0.50;;;;;;;;;;10293349;28;20236;-81
2023/01/16 19:26:28;;;;;;;2.15;0.65;;;;;;;;;;10260224;28;20918;-84
2023/01/16 19:31:29;;;;;;;4.20;0.88;;;;;;;;;;10288889;28;20632;-88
2023/01/16 19:36:30;;;;;;;1.02;0.30;;;;;;;;;;10292631;28;20632;-86
2023/01/16 19:46:51;;;;;;;0.50;0.50;;;;;;;;;;10289652;28;20594;-81
2023/01/16 19:51:55;;;;;;;1.48;0.22;;;;;;;;;;10290352;28;20901;-87
2023/01/16 19:56:57;;;;;;;1.67;0.68;;;;;;;;;;10287796;28;20231;-78
2023/01/16 20:01:59;;;;;;;0.30;0.30;;;;;;;;;;10286897;28;20213;-81
2023/01/16 20:07:02;;;;;;;0.40;0.40;;;;;;;;;;10284170;28;20220;-79
2023/01/16 20:17:23;;;;;;;0.30;0.30;;;;;;;;;;10266991;28;20986;-77
2023/01/16 20:22:25;;;;;;;0.22;0.20;;;;;;;;;;10283094;28;20234;-79
2023/01/16 20:27:26;;;;;;;0.40;0.40;;;;;;;;;;10286114;28;20220;-76
2023/01/16 20:32:28;;;;;;;0.30;0.30;;;;;;;;;;10286231;28;20213;-78
2023/01/16 20:37:29;;;;;;;0.20;0.20;;;;;;;;;;10305113;28;20233;-82
2023/01/16 20:47:50;;;;;;;0.40;0.40;;;;;;;;;;10319938;28;20292;-88
2023/01/16 20:52:52;;;;;;;0.50;0.30;;;;;;;;;;10327592;28;20225;-80
2023/01/16 20:57:53;;;;;;;1.35;0.20;;;;;;;;;;10330057;28;20221;-81
2023/01/16 21:02:55;;;;;;;0.75;0.30;;;;;;;;;;10330493;28;20220;-88
2023/01/16 21:07:57;;;;;;;0.30;0.30;;;;;;;;;;10308515;28;20311;-82
2023/01/16 21:23:57;;;;;;;0.30;0.30;;;;;;;;;;10295015;28;20244;-85
2023/01/16 21:28:58;;;;;;;0.35;0.20;;;;;;;;;;10328676;28;20232;-76
2023/01/16 21:33:59;;;;;;;0.20;0.20;;;;;;;;;;10325536;28;20220;-86
2023/01/16 21:39:01;;;;;;;1.65;0.20;;;;;;;;;;10326899;28;20236;-89
2023/01/16 21:49:21;;;;;;;0.30;0.30;;;;;;;;;;10309836;28;20932;-83
2023/01/16 21:54:22;;;;;;;1.80;0.38;;;;;;;;;;10314574;28;20221;-86
2023/01/16 21:59:23;;;;;;;0.20;0.20;;;;;;;;;;10325352;28;20726;-85
2023/01/16 22:04:24;;;;;;;0.30;0.30;;;;;;;;;;10330213;28;20213;-89
2023/01/16 22:09:25;;;;;;;0.45;0.20;;;;;;;;;;10326712;28;20213;-89
2023/01/16 22:19:59;;;;;;;0.30;0.30;;;;;;;;;;10326437;28;20681;-84
2023/01/16 22:25:00;;;;;;;0.65;0.40;;;;;;;;;;10325136;28;20245;-84
2023/01/16 22:30:01;;;;;;;0.30;0.30;;;;;;;;;;10321602;28;20312;-86
2023/01/16 22:35:02;;;;;;;0.32;0.30;;;;;;;;;;10320049;28;20220;-77
2023/01/16 22:40:04;;;;;;;0.45;0.28;;;;;;;;;;10324000;28;20173;-84
2023/01/16 22:50:25;;;;;;;0.35;0.35;;;;;;;;;;10323463;28;20245;-87
2023/01/16 22:55:26;;;;;;;0.45;0.20;;;;;;;;;;10330803;28;20823;-90
2023/01/16 23:00:27;;;;;;;0.30;0.20;;;;;;;;;;10329181;28;20221;-82
2023/01/16 23:05:28;;;;;;;0.20;0.20;;;;;;;;;;10325563;28;20221;-81
2023/01/16 23:10:31;;;;;;;0.30;0.30;;;;;;;;;;10320815;28;20221;-85
2023/01/16 23:15:32;;;;;;;0.30;0.20;;;;;;;;;;10317591;28;20225;-86
2023/01/16 23:20:33;;;;;;;1.55;0.25;;;;;;;;;;10322490;28;20225;-88
2023/01/16 23:25:34;;;;;;;0.20;0.20;;;;;;;;;;10307183;28;20221;-90
2023/01/16 23:30:35;;;;;;;0.30;0.30;;;;;;;;;;10319865;28;20225;-87
2023/01/16 23:35:36;;;;;;;0.20;0.20;;;;;;;;;;10324096;28;21819;-90
2023/01/16 23:40:37;;;;;;;5.28;0.20;;;;;;;;;;10318924;28;20227;-88
2023/01/16 23:45:38;;;;;;;0.20;0.20;;;;;;;;;;10301677;28;20220;-87
2023/01/16 23:50:39;;;;;;;0.30;0.30;;;;;;;;;;10324212;28;20232;-83
2023/01/16 23:55:41;;;;;;;0.75;0.40;;;;;;;;;;10326332;28;20233;-86
